Time;durP1;ratioP1;P1;durP2;ratioP2;P2;SDS_P1;SDS_P2;PMS_P1;PMS_P2;Temp;Humidity;BMP_temperature;BMP_pressure;BME280_temperature;BME280_humidity;BME280_pressure;Samples;Min_cycle;Max_cycle;Signal;HPM_P1;HPM_P2
2024/03/29 00:00:41;;;;;;;;;1.00;0.83;;;;;13.05;57.89;98890.59;2030064;28;2734641;-71
2024/03/29 00:01:54;;;;;;;;;1.17;1.17;;;;;13.04;57.65;98897.66;2019381;28;2739872;-71
2024/03/29 00:03:07;;;;;;;;;1.00;1.00;;;;;13.03;57.89;98890.72;2041634;28;2739845;-71
2024/03/29 00:04:20;;;;;;;;;1.00;1.00;;;;;13.03;57.64;98893.34;2013613;28;2740977;-71
2024/03/29 00:05:33;;;;;;;;;1.33;1.00;;;;;13.00;57.42;98888.28;2036943;28;2736758;-71
2024/03/29 00:06:47;;;;;;;;;2.00;0.33;;;;;13.01;57.47;98894.41;2036961;28;2731925;-71
2024/03/29 00:08:00;;;;;;;;;2.50;2.50;;;;;12.97;57.41;98899.06;2036479;28;2735679;-71
2024/03/29 00:09:13;;;;;;;;;2.17;0.83;;;;;12.96;57.50;98900.03;2009117;28;2744058;-71
2024/03/29 00:10:27;;;;;;;;;1.83;1.67;;;;;12.98;57.99;98910.44;2035656;28;2742997;-71
2024/03/29 00:11:40;;;;;;;;;1.33;1.00;;;;;12.94;57.81;98900.13;2013182;28;2733602;-71
2024/03/29 00:12:53;;;;;;;;;1.83;1.00;;;;;12.92;58.19;98895.91;2008039;28;2733038;-71
2024/03/29 00:14:06;;;;;;;;;1.00;1.00;;;;;12.91;58.03;98899.53;2011482;28;2739873;-71
2024/03/29 00:15:19;;;;;;;;;1.00;1.00;;;;;12.89;58.10;98899.59;2012853;28;2738277;-71
2024/03/29 00:16:33;;;;;;;;;1.00;1.00;;;;;12.90;58.68;98903.09;2036245;28;2744054;-71
2024/03/29 00:17:46;;;;;;;;;1.17;1.17;;;;;12.89;58.66;98906.69;2012997;28;2737782;-71
2024/03/29 00:18:59;;;;;;;;;2.50;2.50;;;;;12.87;58.95;98898.03;2013108;28;2737882;-71
2024/03/29 00:20:12;;;;;;;;;1.83;1.83;;;;;12.85;58.92;98889.41;2018273;28;2739852;-71
2024/03/29 00:21:25;;;;;;;;;2.17;1.67;;;;;12.82;59.35;98888.66;2017484;28;2737833;-71
2024/03/29 00:22:39;;;;;;;;;2.00;1.83;;;;;12.83;59.55;98897.44;2013509;28;2737769;-71
2024/03/29 00:23:52;;;;;;;;;1.17;1.17;;;;;12.80;59.46;98887.09;2013665;28;2737796;-71
2024/03/29 00:25:05;;;;;;;;;3.50;2.00;;;;;12.78;59.58;98889.84;2036195;28;2732578;-71
2024/03/29 00:26:18;;;;;;;;;0.83;0.83;;;;;12.77;59.49;98895.22;2008745;28;2735682;-71
2024/03/29 00:27:32;;;;;;;;;1.67;1.67;;;;;12.73;59.73;98891.97;2035578;28;2736716;-71
2024/03/29 00:28:45;;;;;;;;;0.67;0.67;;;;;12.69;59.78;98888.72;2014338;28;2725274;-71
2024/03/29 00:29:58;;;;;;;;;2.00;1.33;;;;;12.68;60.36;98889.69;2036106;28;2737813;-71
2024/03/29 00:31:12;;;;;;;;;1.00;1.00;;;;;12.67;60.28;98881.84;2017033;28;2744051;-71
2024/03/29 00:32:26;;;;;;;;;3.00;1.83;;;;;12.67;60.14;98885.34;2044098;28;2727441;-71
2024/03/29 00:33:39;;;;;;;;;2.50;0.83;;;;;12.65;60.57;98867.94;2020755;28;2741939;-71
2024/03/29 00:34:54;;;;;;;;;1.67;1.33;;;;;12.63;60.40;98875.13;2009668;28;2746086;-71
2024/03/29 00:36:07;;;;;;;;;1.67;0.50;;;;;12.59;60.21;98871.91;2013036;28;2737820;-72
2024/03/29 00:37:20;;;;;;;;;2.00;0.67;;;;;12.58;60.37;98873.69;2004585;28;2735678;-71
2024/03/29 00:38:34;;;;;;;;;1.17;1.17;;;;;12.57;60.49;98861.44;2007171;28;2730516;-71
2024/03/29 00:39:47;;;;;;;;;2.17;1.17;;;;;12.53;60.27;98852.09;2037155;28;2733675;-71
2024/03/29 00:41:00;;;;;;;;;0.33;0.33;;;;;12.48;60.52;98852.41;2012873;28;2736728;-71
2024/03/29 00:42:15;;;;;;;;;1.67;0.67;;;;;12.49;60.39;98853.25;2042916;28;2741944;-71
2024/03/29 00:43:28;;;;;;;;;0.67;0.67;;;;;12.51;60.60;98856.63;2012117;28;2737750;-71
2024/03/29 00:44:42;;;;;;;;;2.67;2.67;;;;;12.45;60.54;98852.63;2038053;28;2723194;-71
2024/03/29 00:45:55;;;;;;;;;3.17;1.67;;;;;12.48;60.82;98859.47;2021503;28;2739909;-71
2024/03/29 00:47:09;;;;;;;;;2.00;1.33;;;;;12.45;60.70;98851.78;2013705;28;2744042;-71
2024/03/29 00:48:23;;;;;;;;;0.17;0.17;;;;;12.45;60.89;98851.78;2013308;28;2739876;-71
2024/03/29 00:49:36;;;;;;;;;1.83;1.17;;;;;12.44;60.40;98852.75;2036134;28;2740907;-71
2024/03/29 00:50:50;;;;;;;;;1.67;1.00;;;;;12.43;60.86;98853.69;2013320;28;2740890;-71
2024/03/29 00:52:03;;;;;;;;;2.17;0.67;;;;;12.42;61.01;98849.38;2013026;28;2739872;-71
2024/03/29 00:53:16;;;;;;;;;1.67;1.67;;;;;12.41;60.83;98845.06;2013520;28;2746122;-71
2024/03/29 00:54:30;;;;;;;;;2.33;1.33;;;;;12.37;60.95;98834.72;2011472;28;2736744;-71
2024/03/29 00:55:44;;;;;;;;;2.00;0.33;;;;;12.40;60.99;98848.63;2013688;28;2735682;-71
2024/03/29 00:56:57;;;;;;;;;1.33;0.67;;;;;12.37;61.21;98850.53;2014036;28;2734668;-71
2024/03/29 00:58:10;;;;;;;;;2.33;1.50;;;;;12.36;61.03;98846.22;2022934;28;2734637;-71
2024/03/29 00:59:24;;;;;;;;;0.33;0.33;;;;;12.36;61.18;98840.97;2037163;28;2741956;-71
2024/03/29 01:00:37;;;;;;;;;1.67;1.67;;;;;12.33;61.98;98835.91;2002850;28;2744047;-71
2024/03/29 01:01:50;;;;;;;;;3.83;1.33;;;;;12.32;61.57;98831.56;2000404;28;2739315;-71
2024/03/29 01:03:03;;;;;;;;;3.50;1.83;;;;;12.33;61.55;98848.22;2039187;28;2731519;-71
2024/03/29 01:04:17;;;;;;;;;2.67;1.67;;;;;12.34;61.42;98845.50;2046271;28;2735702;-71
2024/03/29 01:05:30;;;;;;;;;3.17;2.50;;;;;12.32;61.67;98826.31;2022680;28;2738796;-71
2024/03/29 01:06:43;;;;;;;;;2.00;2.00;;;;;12.32;61.93;98826.31;2023166;28;2733587;-71
2024/03/29 01:07:57;;;;;;;;;3.50;1.50;;;;;12.31;61.54;98832.53;2022097;28;2754907;-71
2024/03/29 01:09:11;;;;;;;;;4.50;2.33;;;;;12.33;62.17;98846.44;2023151;28;2735689;-71
2024/03/29 01:10:24;;;;;;;;;1.50;1.33;;;;;12.31;62.13;98852.75;2012519;28;2734718;-71
2024/03/29 01:11:38;;;;;;;;;3.83;1.17;;;;;12.31;62.21;98839.59;2011861;28;2746137;-71
2024/03/29 01:12:51;;;;;;;;;1.67;1.67;;;;;12.33;62.03;98835.06;2013808;28;2740879;-71
2024/03/29 01:14:05;;;;;;;;;1.17;1.17;;;;;12.31;61.99;98837.81;2014299;28;2739884;-71
2024/03/29 01:15:18;;;;;;;;;3.17;2.83;;;;;12.31;62.52;98847.50;2005929;28;2739872;-71
2024/03/29 01:16:32;;;;;;;;;3.17;2.00;;;;;12.29;62.26;98852.03;2008142;28;2732560;-71
2024/03/29 01:17:45;;;;;;;;;2.00;1.50;;;;;12.29;62.38;98846.78;2037835;28;2734645;-71
2024/03/29 01:18:59;;;;;;;;;0.67;0.67;;;;;12.29;62.48;98838.88;2022893;28;2737091;-71
2024/03/29 01:20:12;;;;;;;;;2.67;1.00;;;;;12.26;62.30;98837.28;2019883;28;2737762;-71
2024/03/29 01:21:28;;;;;;;;;2.17;2.17;;;;;12.27;62.46;98833.72;2006814;28;2741943;-71
2024/03/29 01:22:41;;;;;;;;;2.83;2.83;;;;;12.26;62.47;98837.28;2015310;28;2736787;-71
2024/03/29 01:23:55;;;;;;;;;3.33;2.00;;;;;12.24;62.79;98845.31;2014297;28;2739891;-71
2024/03/29 01:25:11;;;;;;;;;2.50;2.50;;;;;12.23;62.84;98846.25;2014102;28;2744064;-71
2024/03/29 01:26:21;;;;;;;;;3.33;2.00;;;;;12.24;63.07;98844.47;2012601;28;2754900;-71
2024/03/29 01:27:32;;;;;;;;;3.00;2.00;;;;;12.21;63.00;98834.13;2027710;28;2739856;-71
2024/03/29 01:28:43;;;;;;;;;2.33;2.33;;;;;12.21;63.01;98842.88;1981380;28;2754422;-71
2024/03/29 01:29:57;;;;;;;;;4.50;2.83;;;;;12.22;63.15;98841.09;2039576;28;2754455;-71
2024/03/29 01:31:11;;;;;;;;;3.00;3.00;;;;;12.22;63.33;98855.09;2030395;28;2741925;-71
2024/03/29 01:32:22;;;;;;;;;4.00;2.00;;;;;12.22;63.15;98849.00;1981163;28;2743087;-71
2024/03/29 01:33:36;;;;;;;;;2.67;2.67;;;;;12.19;63.37;98846.56;2028680;28;2734653;-71
2024/03/29 01:34:49;;;;;;;;;2.00;2.00;;;;;12.19;63.02;98836.03;1999154;28;2741944;-71
2024/03/29 01:36:04;;;;;;;;;3.83;2.83;;;;;12.20;63.56;98848.28;2010941;28;2732556;-71
2024/03/29 01:37:14;;;;;;;;;3.00;3.00;;;;;12.19;63.49;98849.22;1995712;28;2752372;-71
2024/03/29 01:38:25;;;;;;;;;3.00;2.00;;;;;12.19;63.38;98838.66;2036461;28;2749239;-71
2024/03/29 01:39:38;;;;;;;;;5.67;3.00;;;;;12.18;63.68;98839.63;2036251;28;2752383;-71
2024/03/29 01:40:49;;;;;;;;;2.33;2.33;;;;;12.18;63.61;98839.63;1988051;28;2754455;-71
2024/03/29 01:42:00;;;;;;;;;3.00;3.00;;;;;12.17;63.61;98835.31;2027499;28;2744487;-71
2024/03/29 01:43:11;;;;;;;;;2.67;2.67;;;;;12.17;63.25;98837.94;2021327;28;2754443;-71
2024/03/29 01:44:22;;;;;;;;;4.33;4.00;;;;;12.17;63.60;98835.31;2037953;28;2744012;-71
2024/03/29 01:45:32;;;;;;;;;2.67;2.67;;;;;12.18;63.76;98845.72;1981244;28;2754431;-71
2024/03/29 01:46:44;;;;;;;;;5.00;3.00;;;;;12.18;63.54;98848.34;2006822;28;2754514;-72
2024/03/29 01:47:58;;;;;;;;;3.50;2.50;;;;;12.18;63.86;98844.88;2029846;28;2750625;-71
2024/03/29 01:49:11;;;;;;;;;3.17;3.17;;;;;12.18;63.84;98844.88;2005207;28;2754535;-71
2024/03/29 01:50:25;;;;;;;;;3.17;3.17;;;;;12.17;63.68;98843.22;2000369;28;2737754;-72
2024/03/29 01:51:39;;;;;;;;;3.00;2.17;;;;;12.16;63.75;98842.38;2006424;28;2746156;-71
2024/03/29 01:52:50;;;;;;;;;3.67;3.33;;;;;12.13;63.59;98827.63;2011875;28;2752680;-71
2024/03/29 01:54:04;;;;;;;;;3.00;3.00;;;;;12.17;63.85;98832.69;2036856;28;2754442;-71
2024/03/29 01:55:18;;;;;;;;;4.00;4.00;;;;;12.16;63.55;98831.81;2014133;28;2739861;-72
2024/03/29 01:56:32;;;;;;;;;2.50;1.50;;;;;12.15;63.45;98830.97;2014972;28;2733069;-71
2024/03/29 01:57:45;;;;;;;;;3.67;1.67;;;;;12.13;63.55;98824.13;2037137;28;2748166;-72
2024/03/29 01:58:59;;;;;;;;;6.50;2.67;;;;;12.13;63.89;98822.34;2033299;28;2750275;-71
2024/03/29 02:00:10;;;;;;;;;2.33;2.33;;;;;12.17;64.10;98832.69;1981565;28;2754431;-71
2024/03/29 02:01:26;;;;;;;;;3.50;2.83;;;;;12.17;64.10;98849.31;2037753;28;2746110;-71
2024/03/29 02:02:39;;;;;;;;;3.50;2.33;;;;;12.18;63.65;98847.50;2023173;28;2731516;-72
2024/03/29 02:03:52;;;;;;;;;3.00;2.33;;;;;12.15;63.83;98838.88;2020948;28;2737767;-71
2024/03/29 02:05:04;;;;;;;;;1.67;1.67;;;;;12.17;64.03;98832.69;2018852;28;2752361;-71
2024/03/29 02:06:18;;;;;;;;;1.50;1.50;;;;;12.15;64.16;98830.97;2028980;28;2735701;-72
2024/03/29 02:07:32;;;;;;;;;3.83;2.83;;;;;12.14;63.96;98829.31;2000556;28;2748182;-71
2024/03/29 02:08:53;;;;;;;;;4.00;2.00;;;;;12.15;63.80;98830.13;2012841;28;2746122;-71
2024/03/29 02:10:09;;;;;;;;;1.83;1.50;;;;;12.11;63.65;98829.50;2019505;28;2748213;-72
2024/03/29 02:11:23;;;;;;;;;2.00;2.00;;;;;12.14;63.48;98834.59;2022455;28;2733617;-71
2024/03/29 02:12:36;;;;;;;;;2.17;1.67;;;;;12.13;63.85;98835.53;2022408;28;2740898;-71
2024/03/29 02:13:48;;;;;;;;;2.33;2.33;;;;;12.14;63.72;98824.03;1995608;28;2754455;-71
2024/03/29 02:15:02;;;;;;;;;1.50;1.50;;;;;12.15;63.64;98830.97;2046388;28;2737761;-71
2024/03/29 02:16:16;;;;;;;;;1.50;1.50;;;;;12.17;63.51;98827.41;2014524;28;2738804;-71
2024/03/29 02:17:29;;;;;;;;;1.50;1.50;;;;;12.17;63.56;98832.69;2032918;28;2735707;-71
2024/03/29 02:18:42;;;;;;;;;3.33;2.67;;;;;12.19;63.51;98838.66;2036693;28;2736728;-71
2024/03/29 02:19:55;;;;;;;;;2.17;2.00;;;;;12.18;63.85;98834.34;2015222;28;2734636;-71
2024/03/29 02:21:08;;;;;;;;;0.50;0.50;;;;;12.18;63.76;98832.56;2013466;28;2725719;-71
2024/03/29 02:22:23;;;;;;;;;3.00;2.33;;;;;12.19;63.72;98826.34;2008807;28;2754487;-72
2024/03/29 02:23:43;;;;;;;;;2.83;2.00;;;;;12.17;63.64;98836.16;2037053;28;2744054;-72
2024/03/29 02:24:56;;;;;;;;;2.17;1.33;;;;;12.19;63.94;98846.56;2008592;28;2739896;-71
2024/03/29 02:26:10;;;;;;;;;3.83;2.17;;;;;12.16;63.67;98839.72;2029517;28;2754458;-71
2024/03/29 02:27:23;;;;;;;;;2.17;1.83;;;;;12.19;63.52;98842.16;2019905;28;2726391;-71
2024/03/29 02:28:37;;;;;;;;;1.83;1.33;;;;;12.16;63.86;98855.53;2022082;28;2737084;-71
2024/03/29 02:29:50;;;;;;;;;2.33;1.83;;;;;12.18;63.53;98851.00;2012203;28;2740907;-71
2024/03/29 02:31:04;;;;;;;;;1.00;0.83;;;;;12.19;63.31;98851.84;2006011;28;2736759;-71
2024/03/29 02:32:17;;;;;;;;;2.00;1.83;;;;;12.19;63.52;98851.84;2036454;28;2727354;-71
2024/03/29 02:33:31;;;;;;;;;0.67;0.67;;;;;12.20;63.29;98853.53;2021408;28;2719024;-72
2024/03/29 02:34:44;;;;;;;;;2.33;1.67;;;;;12.18;63.34;98836.97;2028185;28;2734637;-71
2024/03/29 02:35:57;;;;;;;;;1.00;1.00;;;;;12.17;63.51;98827.41;2013553;28;2741303;-71
2024/03/29 02:37:10;;;;;;;;;2.83;1.17;;;;;12.17;63.33;98830.03;2020028;28;2739864;-71
2024/03/29 02:38:23;;;;;;;;;1.50;1.50;;;;;12.19;63.56;98841.31;2012713;28;2740890;-72
2024/03/29 02:39:37;;;;;;;;;2.67;2.67;;;;;12.18;63.80;98839.63;2004354;28;2750269;-71
2024/03/29 02:40:50;;;;;;;;;2.67;2.33;;;;;12.20;64.01;98840.38;2009535;28;2748196;-72
2024/03/29 02:42:03;;;;;;;;;1.67;1.67;;;;;12.18;63.88;98845.72;2012701;28;2752365;-72
2024/03/29 02:43:14;;;;;;;;;5.00;2.33;;;;;12.20;63.69;98837.75;1988501;28;2754460;-71
2024/03/29 02:44:25;;;;;;;;;3.00;2.00;;;;;12.22;63.98;98854.28;2044751;28;2737802;-71
2024/03/29 02:45:38;;;;;;;;;1.17;1.00;;;;;12.21;64.02;98845.53;2036030;28;2733611;-71
2024/03/29 02:46:51;;;;;;;;;1.67;1.67;;;;;12.20;63.93;98838.56;2016022;28;2725266;-71
2024/03/29 02:48:04;;;;;;;;;3.00;3.00;;;;;12.23;63.79;98837.50;2018417;28;2745068;-71
2024/03/29 02:49:18;;;;;;;;;1.33;0.67;;;;;12.24;63.73;98845.31;2014793;28;2735702;-72
2024/03/29 02:50:31;;;;;;;;;2.33;2.33;;;;;12.25;63.87;98856.66;2021551;28;2735683;-71
2024/03/29 02:51:44;;;;;;;;;1.67;1.67;;;;;12.24;63.82;98860.25;2045021;28;2738841;-71
2024/03/29 02:52:57;;;;;;;;;2.33;2.00;;;;;12.25;63.93;98856.66;2045704;28;2738136;-71
2024/03/29 02:54:11;;;;;;;;;2.83;1.50;;;;;12.29;64.09;98866.06;2021331;28;2752356;-71
2024/03/29 02:55:24;;;;;;;;;1.50;1.50;;;;;12.27;64.07;98860.88;2012027;28;2746098;-71
2024/03/29 02:56:37;;;;;;;;;1.00;1.00;;;;;12.30;63.97;98865.09;2006156;28;2736080;-71
2024/03/29 02:57:50;;;;;;;;;0.67;0.67;;;;;12.29;63.82;98863.41;2037165;28;2739876;-71
2024/03/29 02:59:03;;;;;;;;;0.67;0.67;;;;;12.28;63.89;98864.34;2036843;28;2732652;-71
2024/03/29 03:00:16;;;;;;;;;0.33;0.33;;;;;12.29;63.82;98857.31;2021482;28;2731566;-71
2024/03/29 03:01:30;;;;;;;;;2.33;0.67;;;;;12.31;64.23;98865.94;2044431;28;2745091;-72
2024/03/29 03:02:43;;;;;;;;;1.00;0.67;;;;;12.33;63.81;98869.31;2021867;28;2730494;-72
2024/03/29 03:03:56;;;;;;;;;0.67;0.67;;;;;12.34;63.64;98874.47;2045201;28;2741956;-72
2024/03/29 03:05:09;;;;;;;;;0.17;0.17;;;;;12.33;63.95;98878.06;2021935;28;2730506;-72
2024/03/29 03:06:22;;;;;;;;;1.00;1.00;;;;;12.35;64.02;98873.50;2045934;28;2736735;-72
2024/03/29 03:11:00;;;;;;;;;0.50;0.50;;;;;12.41;64.05;98874.88;2013915;28;2744476;-72
2024/03/29 03:12:14;;;;;;;;;1.00;1.00;;;;;12.45;63.91;98873.69;2037587;28;2736213;-72
2024/03/29 03:13:29;;;;;;;;;1.17;1.17;;;;;12.46;64.47;98874.56;2013089;28;2734673;-72
2024/03/29 03:14:42;;;;;;;;;2.17;2.17;;;;;12.47;63.56;98868.34;2012848;28;2734052;-72
2024/03/29 03:15:56;;;;;;;;;1.17;1.17;;;;;12.48;63.96;98862.09;2005058;28;2731513;-72
2024/03/29 03:17:09;;;;;;;;;0.50;0.50;;;;;12.48;64.10;98862.94;2006920;28;2745069;-72
2024/03/29 03:18:22;;;;;;;;;4.33;1.50;;;;;12.53;63.95;98878.44;2013966;28;2735683;-72
2024/03/29 03:19:36;;;;;;;;;1.00;0.50;;;;;12.53;64.12;98877.59;2038544;28;2744004;-72
2024/03/29 03:20:53;;;;;;;;;1.00;1.00;;;;;12.58;63.99;98872.81;2020947;28;2744044;-71
2024/03/29 03:22:07;;;;;;;;;0.67;0.67;;;;;12.57;63.77;98868.50;2013911;28;2732917;-72
2024/03/29 03:23:20;;;;;;;;;1.00;1.00;;;;;12.60;63.89;98881.47;2013958;28;2737793;-72
2024/03/29 03:24:34;;;;;;;;;0.67;0.67;;;;;12.62;63.94;98879.56;2022879;28;2734055;-71
2024/03/29 03:25:54;;;;;;;;;0.67;0.00;;;;;12.60;64.08;98874.41;2013132;28;2735686;-71
2024/03/29 03:27:07;;;;;;;;;0.50;0.50;;;;;12.63;64.11;98881.25;2039147;28;2734644;-71
2024/03/29 03:28:21;;;;;;;;;1.50;1.17;;;;;12.65;64.36;98887.25;2020684;28;2739848;-71
2024/03/29 03:29:34;;;;;;;;;0.50;0.50;;;;;12.68;64.14;98886.19;2020452;28;2741947;-71
2024/03/29 03:30:51;;;;;;;;;0.33;0.33;;;;;12.71;63.56;98888.63;2013232;28;2735696;-71
2024/03/29 03:32:05;;;;;;;;;0.67;0.50;;;;;12.69;64.29;98885.25;2013991;28;2731992;-71
2024/03/29 03:33:19;;;;;;;;;1.00;1.00;;;;;12.73;64.06;98891.97;2009098;28;2736736;-71
2024/03/29 03:34:32;;;;;;;;;1.00;1.00;;;;;12.72;63.85;98890.28;2008795;28;2736766;-72
2024/03/29 03:35:46;;;;;;;;;0.33;0.33;;;;;12.77;63.88;98893.44;2022827;28;2725274;-72
2024/03/29 03:37:00;;;;;;;;;3.17;0.83;;;;;12.81;64.30;98892.28;2037711;28;2745090;-72
2024/03/29 03:38:13;;;;;;;;;0.33;0.33;;;;;12.81;64.12;98889.66;2014119;28;2730485;-72
2024/03/29 03:39:26;;;;;;;;;1.17;1.00;;;;;12.82;63.96;98891.31;2014818;28;2742343;-72
2024/03/29 03:40:40;;;;;;;;;1.00;1.00;;;;;12.85;64.51;98898.16;2045697;28;2729456;-72
2024/03/29 03:41:53;;;;;;;;;1.00;1.00;;;;;12.89;64.08;98904.06;2021857;28;2724264;-72
2024/03/29 03:43:07;;;;;;;;;0.83;0.83;;;;;12.89;64.34;98896.97;2022636;28;2724216;-72
2024/03/29 03:44:21;;;;;;;;;2.00;1.00;;;;;12.91;64.13;98899.53;2034316;28;2737813;-72
2024/03/29 03:45:39;;;;;;;;;1.00;1.00;;;;;12.93;64.11;98903.72;2014774;28;2741924;-72
2024/03/29 03:46:52;;;;;;;;;1.00;0.33;;;;;12.93;64.02;98900.25;2014145;28;2736720;-72
2024/03/29 03:48:11;;;;;;;;;0.67;0.67;;;;;12.93;64.04;98897.59;2036452;28;2722130;-71
2024/03/29 03:49:24;;;;;;;;;1.00;1.00;;;;;12.93;63.91;98892.34;2038126;28;2726307;-72
2024/03/29 03:50:38;;;;;;;;;1.00;1.00;;;;;12.99;64.03;98897.16;2013456;28;2735702;-72
2024/03/29 03:51:51;;;;;;;;;0.00;0.00;;;;;13.00;63.71;98903.25;2015533;28;2727338;-72
2024/03/29 03:53:04;;;;;;;;;0.67;0.67;;;;;12.99;64.16;98897.16;2045442;28;2730470;-72
2024/03/29 03:54:17;;;;;;;;;0.00;0.00;;;;;13.02;63.95;98896.94;2022817;28;2725282;-72
2024/03/29 03:55:30;;;;;;;;;1.00;0.83;;;;;13.03;63.71;98898.63;2015106;28;2733611;-72
2024/03/29 03:56:44;;;;;;;;;0.83;0.17;;;;;13.06;64.38;98905.47;2014660;28;2729417;-72
2024/03/29 03:57:57;;;;;;;;;1.50;0.00;;;;;13.07;64.22;98904.50;2004971;28;2737766;-72
2024/03/29 03:59:10;;;;;;;;;0.50;0.50;;;;;13.04;64.10;98905.56;2006620;28;2729464;-71
2024/03/29 04:00:23;;;;;;;;;0.83;0.83;;;;;13.07;64.32;98911.56;2036911;28;2733591;-72
2024/03/29 04:01:36;;;;;;;;;0.00;0.00;;;;;13.07;64.07;98919.47;2017568;28;2729413;-72
2024/03/29 04:02:50;;;;;;;;;0.67;0.67;;;;;13.12;64.12;98927.91;2044952;28;2724236;-72
2024/03/29 04:04:03;;;;;;;;;1.67;0.00;;;;;13.12;63.93;98936.66;2045980;28;2733583;-72
2024/03/29 04:05:18;;;;;;;;;0.33;0.33;;;;;13.13;64.02;98938.34;2019916;28;2727346;-71
2024/03/29 04:06:31;;;;;;;;;0.67;0.00;;;;;13.13;64.15;98934.88;2032627;28;2727350;-71
2024/03/29 04:07:45;;;;;;;;;1.83;0.00;;;;;13.16;64.28;98945.22;2005816;28;2725266;-72
2024/03/29 04:08:58;;;;;;;;;0.00;0.00;;;;;13.18;64.20;98938.03;2030807;28;2728434;-72
2024/03/29 04:10:12;;;;;;;;;1.83;0.83;;;;;13.19;64.29;98937.03;2011309;28;2730462;-72
2024/03/29 04:11:27;;;;;;;;;0.00;0.00;;;;;13.18;64.22;98931.91;2013978;28;2719008;-72
2024/03/29 04:12:40;;;;;;;;;2.00;0.50;;;;;13.22;63.92;98938.63;2014773;28;2724235;-72
2024/03/29 04:13:53;;;;;;;;;0.00;0.00;;;;;13.19;64.12;98923.84;2006235;28;2723203;-72
2024/03/29 04:15:07;;;;;;;;;1.33;1.33;;;;;13.22;63.76;98935.97;2012732;28;2745057;-72
2024/03/29 04:16:20;;;;;;;;;2.33;1.00;;;;;13.23;63.72;98950.88;2022328;28;2736732;-72
2024/03/29 04:17:35;;;;;;;;;1.50;0.83;;;;;13.25;63.70;98948.97;2020982;28;2733595;-72
2024/03/29 04:18:48;;;;;;;;;0.00;0.00;;;;;13.26;63.92;98950.66;2022297;28;2733623;-72
2024/03/29 04:20:01;;;;;;;;;2.00;0.00;;;;;13.25;63.69;98952.44;2020559;28;2734640;-72
2024/03/29 04:21:14;;;;;;;;;0.67;0.67;;;;;13.30;63.84;98956.53;2014677;28;2728383;-72
2024/03/29 04:22:28;;;;;;;;;0.83;0.83;;;;;13.32;63.80;98954.63;2013944;28;2724244;-72
2024/03/29 04:23:41;;;;;;;;;0.33;0.33;;;;;13.34;63.62;98957.97;2014051;28;2740218;-72
2024/03/29 04:24:54;;;;;;;;;1.00;1.00;;;;;13.35;63.72;98962.31;2013712;28;2733599;-72
2024/03/29 04:26:08;;;;;;;;;0.33;0.33;;;;;13.38;63.67;98964.75;2037731;28;2731543;-72
2024/03/29 04:27:21;;;;;;;;;1.00;1.00;;;;;13.39;63.79;98966.41;2036178;28;2735724;-72
2024/03/29 04:28:34;;;;;;;;;1.50;1.00;;;;;13.39;63.61;98966.41;2013873;28;2724209;-72
2024/03/29 04:29:51;;;;;;;;;1.00;1.00;;;;;13.41;63.96;98977.69;2015984;28;2733598;-72
2024/03/29 04:31:04;;;;;;;;;0.83;0.83;;;;;13.43;64.15;98983.72;2018600;28;2738804;-72
2024/03/29 04:32:17;;;;;;;;;0.67;0.67;;;;;13.44;64.23;98979.25;2013891;28;2733625;-72
2024/03/29 04:33:30;;;;;;;;;1.17;1.00;;;;;13.41;63.85;98980.31;2021050;28;2736751;-72
2024/03/29 04:34:47;;;;;;;;;1.00;1.00;;;;;13.44;63.87;98984.53;2006832;28;2741248;-72
2024/03/29 04:36:04;;;;;;;;;0.00;0.00;;;;;13.43;64.06;98978.44;2007603;28;2735694;-72
2024/03/29 04:37:18;;;;;;;;;3.50;1.00;;;;;13.43;64.09;98977.59;2014004;28;2741928;-72
2024/03/29 04:38:31;;;;;;;;;1.00;1.00;;;;;13.39;64.06;98972.53;2022876;28;2729452;-71
2024/03/29 04:39:46;;;;;;;;;1.67;1.00;;;;;13.41;64.03;98977.69;2019581;28;2733605;-72
2024/03/29 04:40:59;;;;;;;;;0.83;0.83;;;;;13.39;64.01;98975.16;2011013;28;2725294;-72
2024/03/29 04:42:12;;;;;;;;;0.50;0.50;;;;;13.40;64.10;98981.28;2013683;28;2727365;-72
2024/03/29 04:43:27;;;;;;;;;1.00;0.00;;;;;13.40;64.43;98986.56;2013795;28;2739837;-72
2024/03/29 04:44:41;;;;;;;;;0.83;0.83;;;;;13.41;64.30;98982.97;2013711;28;2735718;-72
2024/03/29 04:46:09;;;;;;;;;0.67;0.67;;;;;13.41;64.45;98985.59;2037070;28;2733602;-72
2024/03/29 04:47:22;;;;;;;;;1.00;0.50;;;;;13.41;64.42;98982.97;2004928;28;2733596;-72
2024/03/29 04:48:36;;;;;;;;;3.33;0.50;;;;;13.42;64.28;98992.56;2028646;28;2741260;-72
2024/03/29 04:49:49;;;;;;;;;0.83;0.83;;;;;13.41;64.20;98979.50;2006990;28;2729504;-72
2024/03/29 04:51:03;;;;;;;;;0.17;0.17;;;;;13.41;64.25;98995.34;2029275;28;2728383;-72
2024/03/29 04:52:17;;;;;;;;;1.00;1.00;;;;;13.40;64.41;98989.22;2014417;28;2736201;-72
2024/03/29 04:53:30;;;;;;;;;0.33;0.33;;;;;13.40;64.11;98989.22;2013456;28;2725290;-72
2024/03/29 04:54:44;;;;;;;;;1.00;1.00;;;;;13.40;64.27;98989.22;2038051;28;2737776;-72
2024/03/29 04:55:58;;;;;;;;;1.00;1.00;;;;;13.41;63.96;98990.88;2012559;28;2733599;-71
2024/03/29 04:57:12;;;;;;;;;1.00;1.00;;;;;13.42;63.84;98995.22;2003059;28;2729472;-72
2024/03/29 04:58:26;;;;;;;;;1.50;1.50;;;;;13.39;64.06;98998.06;2031258;28;2730455;-72
2024/03/29 04:59:39;;;;;;;;;1.67;0.00;;;;;13.40;64.20;98994.50;2014377;28;2716941;-72
2024/03/29 05:00:52;;;;;;;;;0.83;0.83;;;;;13.41;64.36;98990.88;2013790;28;2731528;-72
2024/03/29 05:02:06;;;;;;;;;1.00;1.00;;;;;13.38;64.15;98989.31;2013979;28;2727341;-72
2024/03/29 05:03:20;;;;;;;;;0.00;0.00;;;;;13.41;64.18;98996.16;2036544;28;2725270;-72
2024/03/29 05:04:33;;;;;;;;;0.33;0.33;;;;;13.40;64.21;98991.84;2037211;28;2734744;-72
2024/03/29 05:05:48;;;;;;;;;1.17;1.17;;;;;13.39;64.37;99000.72;2021579;28;2733591;-72
2024/03/29 05:07:01;;;;;;;;;0.83;0.83;;;;;13.41;64.30;99006.72;2022227;28;2729488;-72
2024/03/29 05:08:15;;;;;;;;;0.17;0.17;;;;;13.44;64.17;99005.66;2021156;28;2725829;-72
2024/03/29 05:09:28;;;;;;;;;2.00;1.00;;;;;13.43;64.38;99011.91;2021711;28;2737757;-72
2024/03/29 05:10:42;;;;;;;;;2.33;1.50;;;;;13.43;64.26;99003.97;2019852;28;2746186;-71
2024/03/29 05:11:55;;;;;;;;;1.00;1.00;;;;;13.42;64.39;98999.66;2021523;28;2737745;-72
2024/03/29 05:13:08;;;;;;;;;2.00;1.00;;;;;13.45;64.30;99008.19;2021927;28;2735787;-72
2024/03/29 05:14:22;;;;;;;;;2.00;1.00;;;;;13.43;64.07;99009.25;2021542;28;2734164;-72
2024/03/29 05:15:35;;;;;;;;;0.67;0.67;;;;;13.45;64.09;99002.91;2022151;28;2735690;-72
2024/03/29 05:16:49;;;;;;;;;1.33;0.33;;;;;13.44;64.17;99005.66;2021008;28;2739914;-72
2024/03/29 05:18:03;;;;;;;;;1.00;1.00;;;;;13.47;64.51;99006.28;2010691;28;2735187;-72
2024/03/29 05:19:16;;;;;;;;;0.50;0.50;;;;;13.45;64.16;99002.91;2013563;28;2735673;-72
2024/03/29 05:20:30;;;;;;;;;1.00;0.00;;;;;13.49;64.30;99007.00;2041389;28;2725273;-72
2024/03/29 05:21:43;;;;;;;;;0.50;0.50;;;;;13.49;64.09;99007.00;2010400;28;2731505;-72
2024/03/29 05:22:58;;;;;;;;;0.50;0.50;;;;;13.50;64.17;99013.13;2037707;28;2731520;-72
2024/03/29 05:24:12;;;;;;;;;0.83;0.83;;;;;13.48;64.45;99013.22;2012866;28;2735698;-72
2024/03/29 05:25:25;;;;;;;;;1.00;1.00;;;;;13.49;64.47;99014.06;2014320;28;2737753;-72
2024/03/29 05:26:38;;;;;;;;;0.33;0.33;;;;;13.49;64.17;99020.19;2012352;28;2733594;-72
2024/03/29 05:27:52;;;;;;;;;0.83;0.83;;;;;13.50;64.40;99032.47;2037379;28;2725317;-72
2024/03/29 05:29:07;;;;;;;;;1.00;1.00;;;;;13.49;64.61;99038.69;2016794;28;2734708;-72
2024/03/29 05:30:20;;;;;;;;;0.00;0.00;;;;;13.52;64.03;99040.25;2021796;28;2733618;-72
2024/03/29 05:31:33;;;;;;;;;0.00;0.00;;;;;13.50;64.34;99029.81;2012563;28;2733599;-72
2024/03/29 05:32:46;;;;;;;;;1.00;1.00;;;;;13.52;64.29;99034.97;2035992;28;2744003;-72
2024/03/29 05:34:00;;;;;;;;;0.67;0.67;;;;;13.52;64.44;99039.41;2013332;28;2736788;-72
2024/03/29 05:35:16;;;;;;;;;1.00;1.00;;;;;13.53;64.58;99046.38;2018734;28;2729428;-72
2024/03/29 05:36:30;;;;;;;;;0.67;0.67;;;;;13.50;64.46;99048.28;2015875;28;2725293;-72
2024/03/29 05:37:49;;;;;;;;;0.00;0.00;;;;;13.50;64.53;99052.72;2037112;28;2733599;-72
2024/03/29 05:39:03;;;;;;;;;0.67;0.00;;;;;13.52;64.45;99045.53;2013605;28;2739872;-72
2024/03/29 05:40:16;;;;;;;;;0.17;0.17;;;;;13.54;64.57;99048.06;2037370;28;2733588;-72
2024/03/29 05:41:31;;;;;;;;;0.17;0.17;;;;;13.54;64.43;99046.25;2004877;28;2728415;-72